sensor_id;sensor_type;location;lat;lon;timestamp;P1;durP1;ratioP1;P2;durP2;ratioP2
27833;SDS011;15200;50.570;7.244;2022-08-04T00:02:24;4.37;;;2.40;;
27833;SDS011;15200;50.570;7.244;2022-08-04T00:05:00;2.65;;;2.08;;
27833;SDS011;15200;50.570;7.244;2022-08-04T00:10:04;3.70;;;2.50;;
27833;SDS011;15200;50.570;7.244;2022-08-04T00:12:32;6.33;;;2.30;;
27833;SDS011;15200;50.570;7.244;2022-08-04T00:15:00;5.50;;;2.30;;
27833;SDS011;15200;50.570;7.244;2022-08-04T00:17:35;4.00;;;2.40;;
27833;SDS011;15200;50.570;7.244;2022-08-04T00:20:00;5.83;;;2.33;;
27833;SDS011;15200;50.570;7.244;2022-08-04T00:22:30;4.60;;;2.30;;
27833;SDS011;15200;50.570;7.244;2022-08-04T00:24:59;2.80;;;2.20;;
27833;SDS011;15200;50.570;7.244;2022-08-04T00:27:27;4.35;;;2.10;;
27833;SDS011;15200;50.570;7.244;2022-08-04T00:29:55;5.45;;;2.33;;
27833;SDS011;15200;50.570;7.244;2022-08-04T00:32:23;3.92;;;2.00;;
27833;SDS011;15200;50.570;7.244;2022-08-04T00:34:52;6.10;;;2.20;;
27833;SDS011;15200;50.570;7.244;2022-08-04T00:37:21;4.45;;;2.62;;
27833;SDS011;15200;50.570;7.244;2022-08-04T00:39:48;3.72;;;2.15;;
27833;SDS011;15200;50.570;7.244;2022-08-04T00:45:04;2.75;;;2.10;;
27833;SDS011;15200;50.570;7.244;2022-08-04T00:50:19;3.70;;;2.20;;
27833;SDS011;15200;50.570;7.244;2022-08-04T00:52:53;4.15;;;2.42;;
27833;SDS011;15200;50.570;7.244;2022-08-04T00:55:26;4.40;;;2.77;;
27833;SDS011;15200;50.570;7.244;2022-08-04T01:00:25;4.03;;;2.30;;
27833;SDS011;15200;50.570;7.244;2022-08-04T01:05:33;2.75;;;2.20;;
27833;SDS011;15200;50.570;7.244;2022-08-04T01:08:10;2.65;;;2.10;;
27833;SDS011;15200;50.570;7.244;2022-08-04T01:10:39;3.60;;;2.65;;
27833;SDS011;15200;50.570;7.244;2022-08-04T01:13:16;3.05;;;2.17;;
27833;SDS011;15200;50.570;7.244;2022-08-04T01:15:53;5.67;;;2.12;;
27833;SDS011;15200;50.570;7.244;2022-08-04T01:18:21;4.87;;;2.37;;
27833;SDS011;15200;50.570;7.244;2022-08-04T01:21:13;3.55;;;2.15;;
27833;SDS011;15200;50.570;7.244;2022-08-04T01:34:19;2.70;;;2.42;;
27833;SDS011;15200;50.570;7.244;2022-08-04T01:36:46;5.50;;;2.50;;
27833;SDS011;15200;50.570;7.244;2022-08-04T01:39:13;4.78;;;2.35;;
27833;SDS011;15200;50.570;7.244;2022-08-04T01:41:59;6.47;;;2.50;;
27833;SDS011;15200;50.570;7.244;2022-08-04T01:44:27;5.62;;;2.17;;
27833;SDS011;15200;50.570;7.244;2022-08-04T01:46:59;7.67;;;3.08;;
27833;SDS011;15200;50.570;7.244;2022-08-04T01:49:28;2.72;;;2.25;;
27833;SDS011;15200;50.570;7.244;2022-08-04T01:51:56;3.15;;;2.30;;
27833;SDS011;15200;50.570;7.244;2022-08-04T01:54:24;3.87;;;2.58;;
27833;SDS011;15200;50.570;7.244;2022-08-04T01:56:53;4.85;;;2.27;;
27833;SDS011;15200;50.570;7.244;2022-08-04T01:59:21;6.35;;;2.52;;
27833;SDS011;15200;50.570;7.244;2022-08-04T02:01:49;2.77;;;2.30;;
27833;SDS011;15200;50.570;7.244;2022-08-04T02:04:17;2.92;;;2.33;;
27833;SDS011;15200;50.570;7.244;2022-08-04T02:06:49;2.65;;;2.10;;
27833;SDS011;15200;50.570;7.244;2022-08-04T02:11:48;3.50;;;2.33;;
27833;SDS011;15200;50.570;7.244;2022-08-04T02:14:18;7.55;;;2.98;;
27833;SDS011;15200;50.570;7.244;2022-08-04T02:16:49;4.90;;;2.98;;
27833;SDS011;15200;50.570;7.244;2022-08-04T02:19:31;3.55;;;2.87;;
27833;SDS011;15200;50.570;7.244;2022-08-04T02:22:17;4.75;;;3.17;;
27833;SDS011;15200;50.570;7.244;2022-08-04T02:24:30;4.62;;;2.70;;
27833;SDS011;15200;50.570;7.244;2022-08-04T02:26:58;5.30;;;2.80;;
27833;SDS011;15200;50.570;7.244;2022-08-04T02:29:39;7.75;;;2.90;;
27833;SDS011;15200;50.570;7.244;2022-08-04T02:32:06;4.33;;;2.72;;
27833;SDS011;15200;50.570;7.244;2022-08-04T02:34:38;4.50;;;2.77;;
27833;SDS011;15200;50.570;7.244;2022-08-04T02:37:05;4.72;;;2.37;;
27833;SDS011;15200;50.570;7.244;2022-08-04T02:39:34;3.02;;;2.40;;
27833;SDS011;15200;50.570;7.244;2022-08-04T02:42:02;3.62;;;2.60;;
27833;SDS011;15200;50.570;7.244;2022-08-04T02:44:30;3.75;;;2.35;;
27833;SDS011;15200;50.570;7.244;2022-08-04T02:46:58;3.65;;;2.67;;
27833;SDS011;15200;50.570;7.244;2022-08-04T02:49:26;4.53;;;2.40;;
27833;SDS011;15200;50.570;7.244;2022-08-04T02:51:56;4.35;;;2.37;;
27833;SDS011;15200;50.570;7.244;2022-08-04T02:54:32;9.13;;;2.37;;
27833;SDS011;15200;50.570;7.244;2022-08-04T02:57:01;8.00;;;3.08;;
27833;SDS011;15200;50.570;7.244;2022-08-04T02:59:29;3.87;;;2.52;;
27833;SDS011;15200;50.570;7.244;2022-08-04T03:01:57;5.70;;;2.50;;
27833;SDS011;15200;50.570;7.244;2022-08-04T03:12:20;2.75;;;2.20;;
27833;SDS011;15200;50.570;7.244;2022-08-04T03:14:51;4.75;;;2.37;;
27833;SDS011;15200;50.570;7.244;2022-08-04T03:20:03;5.58;;;2.33;;
27833;SDS011;15200;50.570;7.244;2022-08-04T03:30:35;5.80;;;2.27;;
27833;SDS011;15200;50.570;7.244;2022-08-04T03:38:44;6.60;;;2.58;;
27833;SDS011;15200;50.570;7.244;2022-08-04T03:41:15;3.65;;;2.42;;
27833;SDS011;15200;50.570;7.244;2022-08-04T03:49:09;3.95;;;2.65;;
27833;SDS011;15200;50.570;7.244;2022-08-04T03:51:42;5.70;;;2.60;;
27833;SDS011;15200;50.570;7.244;2022-08-04T03:54:48;5.03;;;2.58;;
27833;SDS011;15200;50.570;7.244;2022-08-04T03:57:29;2.47;;;2.20;;
27833;SDS011;15200;50.570;7.244;2022-08-04T04:00:03;3.10;;;2.42;;
27833;SDS011;15200;50.570;7.244;2022-08-04T04:05:13;10.20;;;3.27;;
27833;SDS011;15200;50.570;7.244;2022-08-04T04:10:29;10.43;;;3.25;;
27833;SDS011;15200;50.570;7.244;2022-08-04T04:13:08;3.50;;;2.52;;
27833;SDS011;15200;50.570;7.244;2022-08-04T04:15:35;6.85;;;3.00;;
27833;SDS011;15200;50.570;7.244;2022-08-04T04:18:20;6.10;;;2.72;;
27833;SDS011;15200;50.570;7.244;2022-08-04T04:20:51;5.45;;;2.65;;
27833;SDS011;15200;50.570;7.244;2022-08-04T04:23:26;7.72;;;2.77;;
27833;SDS011;15200;50.570;7.244;2022-08-04T04:31:16;6.58;;;2.67;;
27833;SDS011;15200;50.570;7.244;2022-08-04T04:33:57;6.55;;;3.30;;
27833;SDS011;15200;50.570;7.244;2022-08-04T04:44:06;9.75;;;2.87;;
27833;SDS011;15200;50.570;7.244;2022-08-04T04:46:36;10.18;;;2.95;;
27833;SDS011;15200;50.570;7.244;2022-08-04T04:49:03;7.80;;;3.22;;
27833;SDS011;15200;50.570;7.244;2022-08-04T04:51:30;5.35;;;2.87;;
27833;SDS011;15200;50.570;7.244;2022-08-04T04:56:43;5.05;;;2.80;;
27833;SDS011;15200;50.570;7.244;2022-08-04T04:59:12;8.58;;;2.95;;
27833;SDS011;15200;50.570;7.244;2022-08-04T05:04:50;5.55;;;2.98;;
27833;SDS011;15200;50.570;7.244;2022-08-04T05:07:20;10.10;;;2.75;;
27833;SDS011;15200;50.570;7.244;2022-08-04T05:12:20;8.53;;;2.58;;
27833;SDS011;15200;50.570;7.244;2022-08-04T05:14:43;4.12;;;2.87;;
27833;SDS011;15200;50.570;7.244;2022-08-04T05:17:13;8.10;;;3.40;;
27833;SDS011;15200;50.570;7.244;2022-08-04T05:19:50;7.47;;;2.90;;
27833;SDS011;15200;50.570;7.244;2022-08-04T05:22:23;5.47;;;2.70;;
27833;SDS011;15200;50.570;7.244;2022-08-04T05:24:42;10.18;;;3.35;;
27833;SDS011;15200;50.570;7.244;2022-08-04T05:27:20;9.65;;;3.58;;
27833;SDS011;15200;50.570;7.244;2022-08-04T05:29:42;12.53;;;3.55;;
27833;SDS011;15200;50.570;7.244;2022-08-04T05:32:09;11.73;;;3.20;;
27833;SDS011;15200;50.570;7.244;2022-08-04T05:34:43;7.50;;;3.87;;
27833;SDS011;15200;50.570;7.244;2022-08-04T05:37:13;11.08;;;3.30;;
27833;SDS011;15200;50.570;7.244;2022-08-04T05:39:44;13.62;;;3.30;;
27833;SDS011;15200;50.570;7.244;2022-08-04T05:42:11;4.58;;;2.90;;
27833;SDS011;15200;50.570;7.244;2022-08-04T05:44:39;15.88;;;3.65;;
27833;SDS011;15200;50.570;7.244;2022-08-04T05:47:07;11.12;;;3.62;;
27833;SDS011;15200;50.570;7.244;2022-08-04T05:49:37;14.68;;;3.45;;
27833;SDS011;15200;50.570;7.244;2022-08-04T05:52:05;10.50;;;3.42;;
27833;SDS011;15200;50.570;7.244;2022-08-04T05:54:33;10.72;;;3.62;;
27833;SDS011;15200;50.570;7.244;2022-08-04T05:57:02;9.18;;;3.20;;
27833;SDS011;15200;50.570;7.244;2022-08-04T05:59:29;9.20;;;3.42;;
27833;SDS011;15200;50.570;7.244;2022-08-04T06:01:58;8.10;;;3.08;;
27833;SDS011;15200;50.570;7.244;2022-08-04T06:04:48;9.15;;;2.95;;
27833;SDS011;15200;50.570;7.244;2022-08-04T06:06:54;4.90;;;3.20;;
27833;SDS011;15200;50.570;7.244;2022-08-04T06:09:22;7.12;;;3.05;;
27833;SDS011;15200;50.570;7.244;2022-08-04T06:11:49;4.90;;;3.00;;
27833;SDS011;15200;50.570;7.244;2022-08-04T06:14:17;11.35;;;3.15;;
27833;SDS011;15200;50.570;7.244;2022-08-04T06:16:46;11.57;;;3.45;;
27833;SDS011;15200;50.570;7.244;2022-08-04T06:19:16;8.90;;;3.30;;
27833;SDS011;15200;50.570;7.244;2022-08-04T06:21:44;9.85;;;3.20;;
27833;SDS011;15200;50.570;7.244;2022-08-04T06:24:22;3.87;;;3.15;;
27833;SDS011;15200;50.570;7.244;2022-08-04T06:26:43;15.63;;;4.22;;
27833;SDS011;15200;50.570;7.244;2022-08-04T06:29:11;11.45;;;3.17;;
27833;SDS011;15200;50.570;7.244;2022-08-04T06:31:44;26.48;;;4.20;;
27833;SDS011;15200;50.570;7.244;2022-08-04T06:34:13;25.40;;;4.60;;
27833;SDS011;15200;50.570;7.244;2022-08-04T06:36:41;16.85;;;4.37;;
27833;SDS011;15200;50.570;7.244;2022-08-04T06:39:09;18.75;;;4.00;;
27833;SDS011;15200;50.570;7.244;2022-08-04T06:41:37;6.37;;;3.22;;
27833;SDS011;15200;50.570;7.244;2022-08-04T06:44:06;16.95;;;3.33;;
27833;SDS011;15200;50.570;7.244;2022-08-04T06:46:36;8.85;;;3.35;;
27833;SDS011;15200;50.570;7.244;2022-08-04T06:49:03;13.45;;;3.35;;
27833;SDS011;15200;50.570;7.244;2022-08-04T06:51:31;7.75;;;3.45;;
27833;SDS011;15200;50.570;7.244;2022-08-04T06:53:59;9.98;;;3.75;;
27833;SDS011;15200;50.570;7.244;2022-08-04T06:56:27;11.70;;;3.17;;
27833;SDS011;15200;50.570;7.244;2022-08-04T06:58:56;8.00;;;3.00;;
27833;SDS011;15200;50.570;7.244;2022-08-04T07:01:24;10.48;;;2.58;;
27833;SDS011;15200;50.570;7.244;2022-08-04T07:03:52;7.58;;;2.50;;
27833;SDS011;15200;50.570;7.244;2022-08-04T07:06:20;8.53;;;2.60;;
27833;SDS011;15200;50.570;7.244;2022-08-04T07:08:48;8.83;;;2.80;;
27833;SDS011;15200;50.570;7.244;2022-08-04T07:11:16;7.30;;;2.58;;
27833;SDS011;15200;50.570;7.244;2022-08-04T07:13:43;8.40;;;2.98;;
27833;SDS011;15200;50.570;7.244;2022-08-04T07:16:12;10.78;;;2.90;;
27833;SDS011;15200;50.570;7.244;2022-08-04T07:18:40;3.27;;;2.65;;
27833;SDS011;15200;50.570;7.244;2022-08-04T07:21:07;6.40;;;2.50;;
27833;SDS011;15200;50.570;7.244;2022-08-04T07:23:35;8.15;;;2.87;;
27833;SDS011;15200;50.570;7.244;2022-08-04T07:26:02;4.42;;;2.60;;
27833;SDS011;15200;50.570;7.244;2022-08-04T07:28:30;6.78;;;2.67;;
27833;SDS011;15200;50.570;7.244;2022-08-04T07:30:57;7.40;;;2.40;;
27833;SDS011;15200;50.570;7.244;2022-08-04T07:33:25;7.35;;;2.52;;
27833;SDS011;15200;50.570;7.244;2022-08-04T07:35:54;5.70;;;2.50;;
27833;SDS011;15200;50.570;7.244;2022-08-04T07:38:21;8.05;;;3.00;;
27833;SDS011;15200;50.570;7.244;2022-08-04T07:40:49;4.83;;;2.65;;
27833;SDS011;15200;50.570;7.244;2022-08-04T07:43:16;8.25;;;2.85;;
27833;SDS011;15200;50.570;7.244;2022-08-04T07:45:43;5.72;;;2.50;;
27833;SDS011;15200;50.570;7.244;2022-08-04T07:48:11;7.90;;;2.50;;
27833;SDS011;15200;50.570;7.244;2022-08-04T07:50:41;9.93;;;2.98;;
27833;SDS011;15200;50.570;7.244;2022-08-04T07:53:08;8.03;;;2.62;;
27833;SDS011;15200;50.570;7.244;2022-08-04T07:55:36;8.23;;;2.50;;
27833;SDS011;15200;50.570;7.244;2022-08-04T07:58:04;7.22;;;2.58;;
27833;SDS011;15200;50.570;7.244;2022-08-04T08:00:31;9.03;;;2.65;;
27833;SDS011;15200;50.570;7.244;2022-08-04T08:02:59;10.13;;;2.60;;
27833;SDS011;15200;50.570;7.244;2022-08-04T08:05:27;5.62;;;2.50;;
27833;SDS011;15200;50.570;7.244;2022-08-04T08:07:55;6.40;;;2.55;;
27833;SDS011;15200;50.570;7.244;2022-08-04T08:10:23;8.75;;;2.67;;
27833;SDS011;15200;50.570;7.244;2022-08-04T08:12:51;4.15;;;1.98;;
27833;SDS011;15200;50.570;7.244;2022-08-04T08:15:19;4.55;;;2.40;;
27833;SDS011;15200;50.570;7.244;2022-08-04T08:17:47;9.10;;;2.62;;
27833;SDS011;15200;50.570;7.244;2022-08-04T08:20:14;7.87;;;2.72;;
27833;SDS011;15200;50.570;7.244;2022-08-04T08:22:41;4.33;;;2.60;;
27833;SDS011;15200;50.570;7.244;2022-08-04T08:25:10;10.80;;;2.52;;
27833;SDS011;15200;50.570;7.244;2022-08-04T08:27:37;5.80;;;2.22;;
27833;SDS011;15200;50.570;7.244;2022-08-04T08:30:04;4.53;;;2.35;;
27833;SDS011;15200;50.570;7.244;2022-08-04T08:32:32;10.90;;;2.40;;
27833;SDS011;15200;50.570;7.244;2022-08-04T08:34:59;3.90;;;2.12;;
27833;SDS011;15200;50.570;7.244;2022-08-04T08:37:37;7.40;;;2.42;;
27833;SDS011;15200;50.570;7.244;2022-08-04T08:45:42;5.40;;;2.20;;
27833;SDS011;15200;50.570;7.244;2022-08-04T08:51:16;3.33;;;2.27;;
27833;SDS011;15200;50.570;7.244;2022-08-04T09:07:01;7.90;;;2.20;;
27833;SDS011;15200;50.570;7.244;2022-08-04T09:09:39;10.70;;;2.70;;
27833;SDS011;15200;50.570;7.244;2022-08-04T09:12:06;7.65;;;2.17;;
27833;SDS011;15200;50.570;7.244;2022-08-04T09:14:38;8.00;;;2.45;;
27833;SDS011;15200;50.570;7.244;2022-08-04T09:17:05;9.40;;;2.40;;
27833;SDS011;15200;50.570;7.244;2022-08-04T09:19:44;4.62;;;2.65;;
27833;SDS011;15200;50.570;7.244;2022-08-04T09:25:01;4.67;;;2.02;;
27833;SDS011;15200;50.570;7.244;2022-08-04T09:30:11;9.30;;;2.40;;
27833;SDS011;15200;50.570;7.244;2022-08-04T09:32:47;7.20;;;2.42;;
27833;SDS011;15200;50.570;7.244;2022-08-04T09:38:05;11.73;;;2.30;;
27833;SDS011;15200;50.570;7.244;2022-08-04T09:40:38;4.87;;;2.10;;
27833;SDS011;15200;50.570;7.244;2022-08-04T09:45:59;7.45;;;2.12;;
27833;SDS011;15200;50.570;7.244;2022-08-04T09:48:42;5.30;;;2.17;;
27833;SDS011;15200;50.570;7.244;2022-08-04T09:51:13;5.47;;;2.37;;
27833;SDS011;15200;50.570;7.244;2022-08-04T09:56:19;11.22;;;2.17;;
27833;SDS011;15200;50.570;7.244;2022-08-04T09:58:45;2.70;;;1.87;;
27833;SDS011;15200;50.570;7.244;2022-08-04T10:01:23;7.97;;;1.87;;
27833;SDS011;15200;50.570;7.244;2022-08-04T10:03:54;11.15;;;2.05;;
27833;SDS011;15200;50.570;7.244;2022-08-04T10:14:35;3.12;;;1.80;;
27833;SDS011;15200;50.570;7.244;2022-08-04T10:19:49;3.02;;;1.82;;
27833;SDS011;15200;50.570;7.244;2022-08-04T10:22:25;4.53;;;1.55;;
27833;SDS011;15200;50.570;7.244;2022-08-04T10:30:06;3.35;;;1.47;;
27833;SDS011;15200;50.570;7.244;2022-08-04T10:32:57;7.87;;;1.50;;
27833;SDS011;15200;50.570;7.244;2022-08-04T10:35:22;4.28;;;1.55;;
27833;SDS011;15200;50.570;7.244;2022-08-04T10:40:25;2.02;;;1.55;;
27833;SDS011;15200;50.570;7.244;2022-08-04T10:43:10;4.00;;;1.45;;
27833;SDS011;15200;50.570;7.244;2022-08-04T10:45:45;9.15;;;1.40;;
27833;SDS011;15200;50.570;7.244;2022-08-04T10:48:20;5.58;;;1.60;;
27833;SDS011;15200;50.570;7.244;2022-08-04T10:50:52;5.45;;;1.35;;
27833;SDS011;15200;50.570;7.244;2022-08-04T10:53:16;3.62;;;1.45;;
27833;SDS011;15200;50.570;7.244;2022-08-04T10:55:47;5.37;;;1.40;;
27833;SDS011;15200;50.570;7.244;2022-08-04T10:58:18;3.47;;;1.30;;
27833;SDS011;15200;50.570;7.244;2022-08-04T11:00:46;3.33;;;1.00;;
27833;SDS011;15200;50.570;7.244;2022-08-04T11:03:25;2.83;;;1.20;;
27833;SDS011;15200;50.570;7.244;2022-08-04T11:05:52;3.65;;;1.02;;
27833;SDS011;15200;50.570;7.244;2022-08-04T11:08:22;2.00;;;0.88;;
27833;SDS011;15200;50.570;7.244;2022-08-04T11:11:36;2.05;;;0.80;;
27833;SDS011;15200;50.570;7.244;2022-08-04T11:13:18;2.50;;;0.80;;
27833;SDS011;15200;50.570;7.244;2022-08-04T11:15:48;3.22;;;0.98;;
27833;SDS011;15200;50.570;7.244;2022-08-04T11:21:00;5.58;;;0.80;;
27833;SDS011;15200;50.570;7.244;2022-08-04T11:23:19;1.65;;;0.90;;
27833;SDS011;15200;50.570;7.244;2022-08-04T11:25:58;1.77;;;0.70;;
27833;SDS011;15200;50.570;7.244;2022-08-04T11:28:27;3.98;;;1.00;;
27833;SDS011;15200;50.570;7.244;2022-08-04T11:31:00;0.95;;;0.78;;
27833;SDS011;15200;50.570;7.244;2022-08-04T11:33:30;1.00;;;0.70;;
27833;SDS011;15200;50.570;7.244;2022-08-04T11:36:09;2.92;;;0.90;;
27833;SDS011;15200;50.570;7.244;2022-08-04T11:38:56;2.92;;;1.30;;
27833;SDS011;15200;50.570;7.244;2022-08-04T11:41:26;2.58;;;0.90;;
27833;SDS011;15200;50.570;7.244;2022-08-04T11:43:55;4.55;;;0.70;;
27833;SDS011;15200;50.570;7.244;2022-08-04T11:46:31;0.95;;;0.68;;
27833;SDS011;15200;50.570;7.244;2022-08-04T11:49:05;1.52;;;0.72;;
27833;SDS011;15200;50.570;7.244;2022-08-04T11:51:31;3.50;;;0.60;;
27833;SDS011;15200;50.570;7.244;2022-08-04T11:53:59;1.02;;;0.95;;
27833;SDS011;15200;50.570;7.244;2022-08-04T11:56:27;2.95;;;0.82;;
27833;SDS011;15200;50.570;7.244;2022-08-04T11:58:55;4.45;;;1.00;;
27833;SDS011;15200;50.570;7.244;2022-08-04T12:01:25;1.30;;;0.90;;
27833;SDS011;15200;50.570;7.244;2022-08-04T12:04:27;2.77;;;0.82;;
27833;SDS011;15200;50.570;7.244;2022-08-04T12:06:41;2.35;;;0.98;;
27833;SDS011;15200;50.570;7.244;2022-08-04T12:09:53;2.85;;;1.00;;
27833;SDS011;15200;50.570;7.244;2022-08-04T12:11:54;2.85;;;0.98;;
27833;SDS011;15200;50.570;7.244;2022-08-04T12:14:32;2.40;;;0.85;;
27833;SDS011;15200;50.570;7.244;2022-08-04T12:16:59;3.83;;;1.25;;
27833;SDS011;15200;50.570;7.244;2022-08-04T12:19:35;3.33;;;0.88;;
27833;SDS011;15200;50.570;7.244;2022-08-04T12:22:09;1.10;;;0.78;;
27833;SDS011;15200;50.570;7.244;2022-08-04T12:25:38;2.22;;;0.72;;
27833;SDS011;15200;50.570;7.244;2022-08-04T12:27:19;1.98;;;0.88;;
27833;SDS011;15200;50.570;7.244;2022-08-04T12:29:46;2.90;;;0.85;;
27833;SDS011;15200;50.570;7.244;2022-08-04T12:32:25;2.50;;;0.80;;
27833;SDS011;15200;50.570;7.244;2022-08-04T12:34:54;1.32;;;0.80;;
27833;SDS011;15200;50.570;7.244;2022-08-04T12:37:33;3.33;;;1.10;;
27833;SDS011;15200;50.570;7.244;2022-08-04T12:39:59;3.40;;;1.12;;
27833;SDS011;15200;50.570;7.244;2022-08-04T12:42:33;2.02;;;1.20;;
27833;SDS011;15200;50.570;7.244;2022-08-04T12:44:56;1.87;;;1.00;;
27833;SDS011;15200;50.570;7.244;2022-08-04T12:47:24;2.10;;;1.02;;
27833;SDS011;15200;50.570;7.244;2022-08-04T12:49:53;2.42;;;0.80;;
27833;SDS011;15200;50.570;7.244;2022-08-04T12:52:21;6.42;;;1.00;;
27833;SDS011;15200;50.570;7.244;2022-08-04T12:54:51;5.42;;;1.40;;
27833;SDS011;15200;50.570;7.244;2022-08-04T12:57:20;4.00;;;1.32;;
27833;SDS011;15200;50.570;7.244;2022-08-04T12:59:49;7.67;;;1.20;;
27833;SDS011;15200;50.570;7.244;2022-08-04T13:02:29;8.63;;;1.40;;
27833;SDS011;15200;50.570;7.244;2022-08-04T13:04:58;7.60;;;1.50;;
27833;SDS011;15200;50.570;7.244;2022-08-04T13:07:26;4.83;;;1.30;;
27833;SDS011;15200;50.570;7.244;2022-08-04T13:09:55;11.30;;;1.87;;
27833;SDS011;15200;50.570;7.244;2022-08-04T13:12:23;14.78;;;1.85;;
27833;SDS011;15200;50.570;7.244;2022-08-04T13:14:51;2.45;;;1.65;;
27833;SDS011;15200;50.570;7.244;2022-08-04T13:17:20;13.62;;;2.00;;
27833;SDS011;15200;50.570;7.244;2022-08-04T13:19:47;2.30;;;1.55;;
27833;SDS011;15200;50.570;7.244;2022-08-04T13:22:24;7.90;;;1.98;;
27833;SDS011;15200;50.570;7.244;2022-08-04T13:24:52;6.90;;;1.57;;
27833;SDS011;15200;50.570;7.244;2022-08-04T13:27:20;10.95;;;1.75;;
27833;SDS011;15200;50.570;7.244;2022-08-04T13:29:48;7.50;;;1.77;;
27833;SDS011;15200;50.570;7.244;2022-08-04T13:32:18;10.60;;;2.00;;
27833;SDS011;15200;50.570;7.244;2022-08-04T13:34:48;5.58;;;1.85;;
27833;SDS011;15200;50.570;7.244;2022-08-04T13:37:16;4.50;;;1.32;;
27833;SDS011;15200;50.570;7.244;2022-08-04T13:39:45;7.70;;;2.12;;
27833;SDS011;15200;50.570;7.244;2022-08-04T13:42:14;3.58;;;1.70;;
27833;SDS011;15200;50.570;7.244;2022-08-04T13:44:44;4.45;;;1.80;;
27833;SDS011;15200;50.570;7.244;2022-08-04T13:47:14;5.62;;;1.62;;
27833;SDS011;15200;50.570;7.244;2022-08-04T13:50:03;9.18;;;1.67;;
27833;SDS011;15200;50.570;7.244;2022-08-04T13:52:11;9.20;;;1.80;;
27833;SDS011;15200;50.570;7.244;2022-08-04T13:54:43;2.72;;;1.40;;
27833;SDS011;15200;50.570;7.244;2022-08-04T13:57:12;7.45;;;1.90;;
27833;SDS011;15200;50.570;7.244;2022-08-04T13:59:40;15.98;;;2.00;;
27833;SDS011;15200;50.570;7.244;2022-08-04T14:02:14;10.25;;;1.98;;
27833;SDS011;15200;50.570;7.244;2022-08-04T14:04:39;9.03;;;1.77;;
27833;SDS011;15200;50.570;7.244;2022-08-04T14:07:14;3.45;;;1.25;;
27833;SDS011;15200;50.570;7.244;2022-08-04T14:09:42;6.95;;;1.65;;
27833;SDS011;15200;50.570;7.244;2022-08-04T14:12:14;9.20;;;1.85;;
27833;SDS011;15200;50.570;7.244;2022-08-04T14:14:45;9.88;;;1.67;;
27833;SDS011;15200;50.570;7.244;2022-08-04T14:17:13;6.53;;;1.52;;
27833;SDS011;15200;50.570;7.244;2022-08-04T14:25:06;4.30;;;1.50;;
27833;SDS011;15200;50.570;7.244;2022-08-04T14:27:45;4.90;;;1.55;;
27833;SDS011;15200;50.570;7.244;2022-08-04T14:30:26;12.55;;;1.80;;
27833;SDS011;15200;50.570;7.244;2022-08-04T14:32:58;4.22;;;1.60;;
27833;SDS011;15200;50.570;7.244;2022-08-04T14:35:26;4.83;;;1.75;;
27833;SDS011;15200;50.570;7.244;2022-08-04T14:37:54;8.68;;;1.75;;
27833;SDS011;15200;50.570;7.244;2022-08-04T14:40:30;7.75;;;1.82;;
27833;SDS011;15200;50.570;7.244;2022-08-04T14:42:53;8.48;;;1.62;;
27833;SDS011;15200;50.570;7.244;2022-08-04T14:45:42;7.35;;;1.85;;
27833;SDS011;15200;50.570;7.244;2022-08-04T14:48:06;5.83;;;1.57;;
27833;SDS011;15200;50.570;7.244;2022-08-04T14:50:34;3.30;;;1.67;;
27833;SDS011;15200;50.570;7.244;2022-08-04T14:53:07;5.85;;;1.60;;
27833;SDS011;15200;50.570;7.244;2022-08-04T14:55:34;8.85;;;1.45;;
27833;SDS011;15200;50.570;7.244;2022-08-04T14:58:02;8.10;;;1.90;;
27833;SDS011;15200;50.570;7.244;2022-08-04T15:00:31;6.00;;;1.50;;
27833;SDS011;15200;50.570;7.244;2022-08-04T15:03:08;7.67;;;1.70;;
27833;SDS011;15200;50.570;7.244;2022-08-04T15:05:36;4.42;;;1.27;;
27833;SDS011;15200;50.570;7.244;2022-08-04T15:08:04;7.47;;;1.40;;
27833;SDS011;15200;50.570;7.244;2022-08-04T15:10:31;7.78;;;1.45;;
27833;SDS011;15200;50.570;7.244;2022-08-04T15:13:00;3.98;;;1.55;;
27833;SDS011;15200;50.570;7.244;2022-08-04T15:15:28;6.62;;;1.22;;
27833;SDS011;15200;50.570;7.244;2022-08-04T15:17:55;6.72;;;1.87;;
27833;SDS011;15200;50.570;7.244;2022-08-04T15:20:22;5.15;;;1.75;;
27833;SDS011;15200;50.570;7.244;2022-08-04T15:22:50;11.15;;;1.47;;
27833;SDS011;15200;50.570;7.244;2022-08-04T15:25:17;12.82;;;1.90;;
27833;SDS011;15200;50.570;7.244;2022-08-04T15:27:46;7.80;;;1.62;;
27833;SDS011;15200;50.570;7.244;2022-08-04T15:30:14;8.83;;;1.92;;
27833;SDS011;15200;50.570;7.244;2022-08-04T15:32:46;8.60;;;2.00;;
27833;SDS011;15200;50.570;7.244;2022-08-04T15:35:33;7.15;;;1.70;;
27833;SDS011;15200;50.570;7.244;2022-08-04T15:40:45;13.48;;;2.00;;
27833;SDS011;15200;50.570;7.244;2022-08-04T15:45:47;3.83;;;1.65;;
27833;SDS011;15200;50.570;7.244;2022-08-04T15:53:27;8.18;;;1.95;;
27833;SDS011;15200;50.570;7.244;2022-08-04T15:55:54;7.65;;;1.72;;
27833;SDS011;15200;50.570;7.244;2022-08-04T15:58:22;6.47;;;1.52;;
27833;SDS011;15200;50.570;7.244;2022-08-04T16:21:51;9.75;;;2.15;;
27833;SDS011;15200;50.570;7.244;2022-08-04T16:24:20;8.23;;;2.30;;
27833;SDS011;15200;50.570;7.244;2022-08-04T16:26:51;9.83;;;2.20;;
27833;SDS011;15200;50.570;7.244;2022-08-04T16:34:38;9.80;;;2.52;;
27833;SDS011;15200;50.570;7.244;2022-08-04T16:37:10;2.58;;;1.72;;
27833;SDS011;15200;50.570;7.244;2022-08-04T16:39:38;6.53;;;1.72;;
27833;SDS011;15200;50.570;7.244;2022-08-04T16:50:19;5.00;;;1.85;;
27833;SDS011;15200;50.570;7.244;2022-08-04T16:52:49;10.72;;;2.27;;
27833;SDS011;15200;50.570;7.244;2022-08-04T16:55:20;17.65;;;2.35;;
27833;SDS011;15200;50.570;7.244;2022-08-04T16:57:52;4.65;;;2.20;;
27833;SDS011;15200;50.570;7.244;2022-08-04T17:00:16;5.58;;;1.80;;
27833;SDS011;15200;50.570;7.244;2022-08-04T17:02:44;4.97;;;1.77;;
27833;SDS011;15200;50.570;7.244;2022-08-04T17:05:22;5.12;;;2.00;;
27833;SDS011;15200;50.570;7.244;2022-08-04T17:07:53;6.05;;;2.02;;
27833;SDS011;15200;50.570;7.244;2022-08-04T17:10:35;6.42;;;1.77;;
27833;SDS011;15200;50.570;7.244;2022-08-04T17:12:58;4.80;;;2.17;;
27833;SDS011;15200;50.570;7.244;2022-08-04T17:15:26;4.37;;;2.00;;
27833;SDS011;15200;50.570;7.244;2022-08-04T17:18:17;3.77;;;2.05;;
27833;SDS011;15200;50.570;7.244;2022-08-04T17:20:27;8.18;;;1.87;;
27833;SDS011;15200;50.570;7.244;2022-08-04T17:22:51;4.35;;;1.72;;
27833;SDS011;15200;50.570;7.244;2022-08-04T17:25:18;3.65;;;1.60;;
27833;SDS011;15200;50.570;7.244;2022-08-04T17:27:46;9.60;;;2.30;;
27833;SDS011;15200;50.570;7.244;2022-08-04T17:30:26;2.83;;;1.80;;
27833;SDS011;15200;50.570;7.244;2022-08-04T17:32:53;6.80;;;2.17;;
27833;SDS011;15200;50.570;7.244;2022-08-04T17:35:20;7.65;;;2.30;;
27833;SDS011;15200;50.570;7.244;2022-08-04T17:37:48;3.72;;;2.05;;
27833;SDS011;15200;50.570;7.244;2022-08-04T17:40:15;7.83;;;1.95;;
27833;SDS011;15200;50.570;7.244;2022-08-04T17:42:42;7.08;;;1.90;;
27833;SDS011;15200;50.570;7.244;2022-08-04T17:45:11;5.37;;;2.33;;
27833;SDS011;15200;50.570;7.244;2022-08-04T17:47:48;5.22;;;2.00;;
27833;SDS011;15200;50.570;7.244;2022-08-04T17:50:25;4.33;;;2.08;;
27833;SDS011;15200;50.570;7.244;2022-08-04T17:53:02;2.52;;;1.67;;
27833;SDS011;15200;50.570;7.244;2022-08-04T17:58:11;2.92;;;1.82;;
27833;SDS011;15200;50.570;7.244;2022-08-04T18:00:39;1.70;;;1.55;;
27833;SDS011;15200;50.570;7.244;2022-08-04T18:03:06;4.58;;;1.95;;
27833;SDS011;15200;50.570;7.244;2022-08-04T18:05:33;3.47;;;1.90;;
27833;SDS011;15200;50.570;7.244;2022-08-04T18:08:07;4.03;;;1.80;;
27833;SDS011;15200;50.570;7.244;2022-08-04T18:10:35;3.35;;;1.72;;
27833;SDS011;15200;50.570;7.244;2022-08-04T18:13:05;4.70;;;1.70;;
27833;SDS011;15200;50.570;7.244;2022-08-04T18:15:32;4.03;;;1.62;;
27833;SDS011;15200;50.570;7.244;2022-08-04T18:18:21;6.37;;;2.20;;